createdAt,value
2018-02-08T00:00:51.504Z,-1.50
2018-02-08T00:03:19.720Z,-1.60
2018-02-08T00:05:47.855Z,-1.50
2018-02-08T00:08:15.976Z,-1.60
2018-02-08T00:10:44.276Z,-1.60
2018-02-08T00:13:12.557Z,-1.80
2018-02-08T00:15:40.701Z,-2.10
2018-02-08T00:18:09.609Z,-2.10
2018-02-08T00:20:37.753Z,-2.20
2018-02-08T00:23:07.042Z,-2.10
2018-02-08T00:25:35.182Z,-2.10
2018-02-08T00:28:03.303Z,-2.20
2018-02-08T00:30:31.458Z,-2.30
2018-02-08T00:32:59.597Z,-2.30
2018-02-08T00:35:27.737Z,-2.00
2018-02-08T00:37:55.906Z,-1.90
2018-02-08T00:40:24.061Z,-2.00
2018-02-08T00:42:52.950Z,-1.80
2018-02-08T00:45:21.850Z,-1.70
2018-02-08T00:47:50.746Z,-1.60
2018-02-08T00:50:18.945Z,-1.60
2018-02-08T00:52:47.081Z,-1.80
2018-02-08T00:55:15.984Z,-1.60
2018-02-08T00:57:44.141Z,-1.60
2018-02-08T01:00:13.542Z,-1.60
2018-02-08T01:02:42.562Z,-1.50
2018-02-08T01:05:10.680Z,-1.50
2018-02-08T01:07:38.820Z,-1.50
2018-02-08T01:10:06.952Z,-1.40
2018-02-08T01:12:35.121Z,-1.30
2018-02-08T01:15:04.018Z,-1.30
2018-02-08T01:17:32.158Z,-1.30
2018-02-08T01:20:00.347Z,-1.30
2018-02-08T01:22:28.649Z,-1.20
2018-02-08T01:24:56.774Z,-1.20
2018-02-08T01:27:24.920Z,-1.20
2018-02-08T01:29:53.090Z,-1.30
2018-02-08T01:32:21.225Z,-1.30
2018-02-08T01:34:49.361Z,-1.30
2018-02-08T01:37:17.496Z,-1.20
2018-02-08T01:39:45.621Z,-1.20
2018-02-08T01:42:13.753Z,-1.20
2018-02-08T01:44:42.660Z,-1.20
2018-02-08T01:47:10.799Z,-1.20
2018-02-08T01:49:45.711Z,-1.20
2018-02-08T01:52:13.804Z,-1.10
2018-02-08T01:54:41.945Z,-1.20
2018-02-08T01:57:10.089Z,-1.20
2018-02-08T01:59:38.227Z,-1.10
2018-02-08T02:02:06.395Z,-1.10
2018-02-08T02:04:34.536Z,-1.20
2018-02-08T02:07:02.672Z,-1.20
2018-02-08T02:09:30.858Z,-1.20
2018-02-08T02:11:59.763Z,-1.20
2018-02-08T02:14:27.980Z,-1.20
2018-02-08T02:16:56.109Z,-1.10
2018-02-08T02:19:24.249Z,-1.20
2018-02-08T02:22:08.212Z,-1.20
2018-02-08T02:24:37.141Z,-1.20
2018-02-08T02:27:05.267Z,-1.20
2018-02-08T02:29:33.430Z,-1.10
2018-02-08T02:32:01.564Z,-1.20
2018-02-08T02:34:29.696Z,-1.30
2018-02-08T02:36:57.849Z,-1.30
2018-02-08T02:39:25.998Z,-1.30
2018-02-08T02:41:54.128Z,-1.20
2018-02-08T02:44:22.305Z,-1.20
2018-02-08T02:46:50.421Z,-1.20
2018-02-08T02:49:18.553Z,-1.30
2018-02-08T02:51:46.691Z,-1.40
2018-02-08T02:54:15.581Z,-1.30
2018-02-08T02:56:43.730Z,-1.30
2018-02-08T02:59:11.858Z,-1.60
2018-02-08T03:01:40.037Z,-1.40
2018-02-08T03:04:08.161Z,-1.40
2018-02-08T03:06:37.071Z,-1.60
2018-02-08T03:09:05.204Z,-1.60
2018-02-08T03:11:33.363Z,-1.60
2018-02-08T03:14:01.503Z,-1.90
2018-02-08T03:16:29.689Z,-2.20
2018-02-08T03:18:57.818Z,-2.00
2018-02-08T03:21:25.968Z,-1.80
2018-02-08T03:23:54.133Z,-1.70
2018-02-08T03:26:22.276Z,-1.60
2018-02-08T03:28:50.408Z,-1.60
2018-02-08T03:31:22.140Z,-1.70
2018-02-08T03:33:51.037Z,-1.90
2018-02-08T03:36:19.994Z,-2.10
2018-02-08T03:38:48.137Z,-2.10
2018-02-08T03:41:16.269Z,-1.90
2018-02-08T03:43:44.415Z,-1.90
2018-02-08T03:46:12.930Z,-1.80
2018-02-08T03:48:41.085Z,-1.80
2018-02-08T03:51:09.990Z,-1.80
2018-02-08T03:53:38.135Z,-1.80
2018-02-08T03:56:06.281Z,-1.70
2018-02-08T03:58:34.448Z,-2.00
2018-02-08T04:01:02.575Z,-2.20
2018-02-08T04:03:30.739Z,-2.30
2018-02-08T04:05:59.629Z,-2.30
2018-02-08T04:08:28.849Z,-2.20
2018-02-08T04:10:56.974Z,-2.20
2018-02-08T04:13:25.270Z,-2.00
2018-02-08T04:15:54.195Z,-2.10
2018-02-08T04:18:22.332Z,-2.10
2018-02-08T04:20:51.357Z,-2.10
2018-02-08T04:23:19.491Z,-2.10
2018-02-08T04:25:48.388Z,-2.30
2018-02-08T04:28:16.557Z,-2.30
2018-02-08T04:30:45.454Z,-2.50
2018-02-08T04:33:14.360Z,-2.50
2018-02-08T04:35:42.509Z,-2.50
2018-02-08T04:38:17.612Z,-2.40
2018-02-08T04:54:16.085Z,-2.40
2018-02-08T04:56:44.325Z,-2.60
2018-02-08T04:59:12.464Z,-2.60
2018-02-08T05:01:40.594Z,-2.70
2018-02-08T05:04:08.736Z,-2.60
2018-02-08T05:06:36.856Z,-2.50
2018-02-08T05:09:05.801Z,-2.30
2018-02-08T05:11:33.966Z,-2.30
2018-02-08T05:14:02.189Z,-2.50
2018-02-08T05:16:31.113Z,-2.10
2018-02-08T05:18:59.287Z,-2.20
2018-02-08T05:21:27.437Z,-2.10
2018-02-08T05:23:56.331Z,-2.10
2018-02-08T05:26:24.478Z,-2.10
2018-02-08T05:28:52.628Z,-1.90
2018-02-08T05:31:20.817Z,-2.00
2018-02-08T05:33:48.966Z,-2.10
2018-02-08T05:36:17.192Z,-2.00
2018-02-08T05:38:46.081Z,-1.90
2018-02-08T05:41:14.349Z,-2.00
2018-02-08T05:43:42.502Z,-2.10
2018-02-08T05:46:10.644Z,-2.30
2018-02-08T05:48:38.783Z,-2.20
2018-02-08T05:51:06.933Z,-2.10
2018-02-08T05:53:35.836Z,-2.20
2018-02-08T05:56:04.110Z,-2.20
2018-02-08T05:58:32.324Z,-2.10
2018-02-08T06:01:00.547Z,-2.10
2018-02-08T06:03:29.752Z,-2.30
2018-02-08T06:05:59.309Z,-2.30
2018-02-08T06:08:27.506Z,-2.30
2018-02-08T06:10:55.957Z,-2.40
2018-02-08T06:13:24.153Z,-2.40
2018-02-08T06:15:52.541Z,-2.70
2018-02-08T06:18:20.850Z,-2.80
2018-02-08T06:20:49.045Z,-2.70
2018-02-08T06:23:17.209Z,-2.60
2018-02-08T06:25:45.740Z,-2.60
2018-02-08T06:28:14.080Z,-2.60
2018-02-08T06:30:43.314Z,-2.90
2018-02-08T06:33:11.448Z,-2.90
2018-02-08T06:35:40.401Z,-2.90
2018-02-08T06:38:08.562Z,-3.00
2018-02-08T06:40:36.792Z,-2.90
2018-02-08T06:43:04.948Z,-2.90
2018-02-08T06:45:33.077Z,-2.90
2018-02-08T06:48:01.249Z,-3.00
2018-02-08T06:50:29.385Z,-3.00
2018-02-08T06:52:57.530Z,-3.10
2018-02-08T06:55:25.652Z,-3.00
2018-02-08T06:57:53.796Z,-3.00
2018-02-08T07:00:22.368Z,-3.10
2018-02-08T07:02:51.266Z,-3.00
2018-02-08T07:05:19.384Z,-3.00
2018-02-08T07:07:47.524Z,-2.90
2018-02-08T07:10:16.417Z,-2.90
2018-02-08T07:12:45.337Z,-2.90
2018-02-08T07:15:13.469Z,-2.90
2018-02-08T07:17:41.623Z,-2.90
2018-02-08T07:20:11.563Z,-2.80
2018-02-08T07:22:39.973Z,-2.90
2018-02-08T07:25:08.256Z,-2.80
2018-02-08T07:27:36.452Z,-2.80
2018-02-08T07:30:04.647Z,-2.80
2018-02-08T07:32:32.966Z,-2.70
2018-02-08T07:35:01.942Z,-2.60
2018-02-08T07:37:30.146Z,-2.60
2018-02-08T07:39:58.377Z,-2.50
2018-02-08T07:42:26.585Z,-2.50
2018-02-08T07:44:54.765Z,-2.40
2018-02-08T07:47:23.061Z,-2.40
2018-02-08T07:49:51.307Z,-2.40
2018-02-08T07:52:19.678Z,-2.50
2018-02-08T07:54:47.885Z,-2.40
2018-02-08T07:57:16.469Z,-2.40
2018-02-08T07:59:44.869Z,-2.40
2018-02-08T08:02:13.089Z,-2.30
2018-02-08T08:04:41.415Z,-2.40
2018-02-08T08:07:10.525Z,-2.20
2018-02-08T08:09:38.869Z,-2.20
2018-02-08T08:12:07.932Z,-2.20
2018-02-08T08:14:36.519Z,-2.20
2018-02-08T08:17:04.726Z,-2.10
2018-02-08T08:19:32.992Z,-2.20
2018-02-08T08:22:01.184Z,-2.00
2018-02-08T08:24:29.378Z,-2.00
2018-02-08T08:26:57.643Z,-1.60
2018-02-08T08:29:26.904Z,-1.70
2018-02-08T08:31:55.134Z,-1.70
2018-02-08T08:34:23.313Z,-1.40
2018-02-08T08:36:51.771Z,-1.10
2018-02-08T08:39:21.754Z,-0.80
2018-02-08T08:41:50.172Z,-0.80
2018-02-08T08:44:18.556Z,-0.70
2018-02-08T08:46:47.004Z,-0.70
2018-02-08T08:49:15.406Z,-1.00
2018-02-08T08:51:44.627Z,-0.90
2018-02-08T08:54:12.742Z,-1.00
2018-02-08T08:56:40.884Z,-1.20
2018-02-08T08:59:09.014Z,-0.90
2018-02-08T09:01:37.540Z,-0.80
2018-02-08T09:04:05.651Z,-1.30
2018-02-08T09:06:34.569Z,-0.70
2018-02-08T09:09:02.694Z,-0.70
2018-02-08T09:11:30.846Z,-0.50
2018-02-08T09:13:58.997Z,-0.50
2018-02-08T09:16:27.218Z,-0.40
2018-02-08T09:18:56.139Z,-0.20
2018-02-08T09:21:24.272Z,-0.20
2018-02-08T09:23:52.445Z,-0.60
2018-02-08T09:26:20.608Z,-1.20
2018-02-08T09:28:48.795Z,-1.20
2018-02-08T09:31:17.314Z,-1.10
2018-02-08T09:33:50.261Z,-0.70
2018-02-08T09:36:18.417Z,-0.40
2018-02-08T09:38:46.538Z,0.00
2018-02-08T09:41:14.686Z,0.20
2018-02-08T09:43:43.666Z,0.60
2018-02-08T09:46:12.562Z,0.60
2018-02-08T09:48:57.573Z,0.60
2018-02-08T09:51:38.108Z,0.70
2018-02-08T09:54:06.241Z,0.60
2018-02-08T09:56:34.481Z,0.70
2018-02-08T09:59:02.609Z,0.70
2018-02-08T10:01:31.510Z,0.60
2018-02-08T10:04:17.426Z,0.60
2018-02-08T10:07:00.450Z,0.90
2018-02-08T10:09:28.645Z,1.20
2018-02-08T10:11:56.848Z,1.30
2018-02-08T10:14:25.014Z,1.30
2018-02-08T10:16:53.148Z,1.30
2018-02-08T10:19:22.069Z,1.30
2018-02-08T10:21:50.213Z,1.30
2018-02-08T10:24:18.381Z,1.30
2018-02-08T10:26:46.480Z,1.30
2018-02-08T10:29:14.621Z,1.30
2018-02-08T10:31:42.761Z,1.30
2018-02-08T10:34:10.896Z,1.30
2018-02-08T10:36:39.033Z,1.40
2018-02-08T10:39:07.192Z,1.30
2018-02-08T10:41:35.329Z,1.30
2018-02-08T10:44:03.538Z,1.40
2018-02-08T10:46:31.677Z,1.40
2018-02-08T10:49:00.586Z,1.10
2018-02-08T10:51:28.721Z,1.10
2018-02-08T10:53:56.890Z,0.70
2018-02-08T10:56:25.825Z,1.10
2018-02-08T10:58:53.950Z,1.00
2018-02-08T11:01:22.093Z,1.20
2018-02-08T11:03:50.248Z,1.30
2018-02-08T11:06:18.378Z,0.80
2018-02-08T11:08:47.293Z,1.20
2018-02-08T11:11:16.208Z,1.20
2018-02-08T11:13:44.336Z,1.20
2018-02-08T11:16:13.255Z,1.50
2018-02-08T11:18:41.389Z,1.50
2018-02-08T11:21:09.541Z,0.90
2018-02-08T11:23:37.672Z,0.40
2018-02-08T11:26:05.821Z,0.40
2018-02-08T11:28:33.966Z,0.30
2018-02-08T11:31:02.131Z,0.20
2018-02-08T11:33:30.262Z,0.30
2018-02-08T11:35:58.380Z,0.40
2018-02-08T11:38:27.278Z,0.60
2018-02-08T11:40:56.194Z,0.70
2018-02-08T11:43:24.341Z,0.70
2018-02-08T11:45:53.226Z,0.40
2018-02-08T11:48:21.369Z,0.40
2018-02-08T11:50:49.507Z,0.30
2018-02-08T11:53:17.648Z,0.30
2018-02-08T11:55:45.781Z,0.50
2018-02-08T11:58:13.926Z,0.50
2018-02-08T12:00:42.050Z,0.50
2018-02-08T12:03:10.962Z,0.60
2018-02-08T12:05:39.094Z,0.60
2018-02-08T12:08:07.260Z,0.50
2018-02-08T12:10:35.434Z,0.60
2018-02-08T12:13:03.577Z,0.50
2018-02-08T12:15:31.700Z,0.70
2018-02-08T12:18:00.626Z,1.20
2018-02-08T12:20:29.868Z,1.20
2018-02-08T12:22:58.109Z,1.20
2018-02-08T12:25:26.248Z,1.30
2018-02-08T12:27:54.377Z,1.20
2018-02-08T12:30:22.514Z,0.50
2018-02-08T12:32:50.638Z,0.50
2018-02-08T12:35:19.536Z,0.30
2018-02-08T12:37:48.449Z,0.60
2018-02-08T12:40:16.577Z,0.60
2018-02-08T12:42:44.700Z,0.60
2018-02-08T12:45:12.861Z,0.60
2018-02-08T12:47:40.977Z,0.70
2018-02-08T12:50:09.115Z,0.70
2018-02-08T12:52:37.233Z,0.60
2018-02-08T12:55:05.384Z,0.40
2018-02-08T12:57:33.519Z,0.50
2018-02-08T13:00:01.661Z,0.60
2018-02-08T13:02:29.784Z,1.00
2018-02-08T13:04:57.904Z,1.10
2018-02-08T13:07:26.045Z,1.20
2018-02-08T13:09:54.161Z,1.20
2018-02-08T13:12:22.301Z,1.20
2018-02-08T13:14:50.927Z,0.80
2018-02-08T13:17:19.803Z,0.60
2018-02-08T13:19:48.700Z,0.70
2018-02-08T13:22:16.841Z,0.60
2018-02-08T13:24:44.958Z,1.00
2018-02-08T13:27:13.101Z,1.00
2018-02-08T13:29:41.289Z,0.50
2018-02-08T13:32:09.441Z,0.30
2018-02-08T13:34:38.332Z,0.60
2018-02-08T13:37:07.230Z,0.80
2018-02-08T13:39:37.988Z,0.70
2018-02-08T13:42:21.934Z,0.90
2018-02-08T13:44:50.086Z,1.10
2018-02-08T13:47:24.003Z,1.20
2018-02-08T13:50:02.034Z,1.30
2018-02-08T13:52:35.773Z,0.70
2018-02-08T14:08:26.229Z,0.60
2018-02-08T14:10:54.374Z,0.70
2018-02-08T14:13:22.508Z,0.90
2018-02-08T14:15:51.533Z,0.90
2018-02-08T14:18:19.688Z,0.80
2018-02-08T14:20:47.839Z,0.50
2018-02-08T14:23:16.000Z,0.40
2018-02-08T14:25:44.880Z,0.90
2018-02-08T14:28:13.789Z,1.10
2018-02-08T14:30:42.033Z,1.10
2018-02-08T14:33:10.383Z,1.20
2018-02-08T14:35:38.594Z,1.10
2018-02-08T14:38:06.775Z,1.20
2018-02-08T14:40:34.888Z,1.20
2018-02-08T14:43:03.124Z,1.30
2018-02-08T14:45:31.301Z,1.30
2018-02-08T14:47:59.488Z,1.10
2018-02-08T14:50:27.891Z,0.90
2018-02-08T14:52:56.146Z,0.70
2018-02-08T14:55:24.381Z,0.70
2018-02-08T14:57:52.566Z,0.60
2018-02-08T15:00:20.934Z,0.60
2018-02-08T15:02:49.167Z,0.50
2018-02-08T15:05:18.398Z,0.50
2018-02-08T15:07:47.319Z,0.40
2018-02-08T15:10:15.606Z,0.40
2018-02-08T15:12:44.644Z,0.40
2018-02-08T15:15:12.799Z,0.40
2018-02-08T15:17:41.062Z,0.40
2018-02-08T15:20:09.284Z,0.40
2018-02-08T15:22:37.553Z,0.70
2018-02-08T15:25:05.697Z,0.90
2018-02-08T15:27:33.837Z,1.00
2018-02-08T15:30:01.994Z,1.10
2018-02-08T15:32:30.167Z,1.10
2018-02-08T15:34:59.016Z,1.10
2018-02-08T15:37:27.896Z,1.00
2018-02-08T15:39:56.790Z,0.60
2018-02-08T15:42:25.686Z,0.70
2018-02-08T15:44:54.622Z,0.60
2018-02-08T15:47:22.817Z,0.60
2018-02-08T15:49:50.962Z,0.50
2018-02-08T15:52:19.118Z,0.20
2018-02-08T15:54:47.257Z,0.10
2018-02-08T15:57:16.274Z,0.30
2018-02-08T15:59:46.038Z,0.30
2018-02-08T16:02:14.349Z,0.30
2018-02-08T16:04:42.456Z,0.40
2018-02-08T16:07:10.787Z,0.30
2018-02-08T16:09:38.949Z,0.50
2018-02-08T16:12:07.196Z,0.10
2018-02-08T16:14:35.424Z,0.20
2018-02-08T16:17:03.556Z,0.30
2018-02-08T16:19:31.894Z,0.40
2018-02-08T16:22:00.015Z,0.40
2018-02-08T16:24:28.229Z,0.50
2018-02-08T16:26:56.373Z,0.40
2018-02-08T16:29:24.499Z,0.40
2018-02-08T16:31:52.636Z,0.50
2018-02-08T16:34:20.790Z,0.50
2018-02-08T16:36:48.980Z,0.50
2018-02-08T16:39:17.110Z,0.50
2018-02-08T16:41:45.278Z,0.50
2018-02-08T16:44:13.426Z,0.50
2018-02-08T16:46:41.554Z,0.50
2018-02-08T16:49:09.689Z,0.40
2018-02-08T16:51:38.609Z,0.40
2018-02-08T16:54:06.735Z,0.40
2018-02-08T16:56:34.886Z,0.40
2018-02-08T16:59:03.009Z,0.40
2018-02-08T17:01:32.710Z,0.40
2018-02-08T17:04:01.610Z,0.30
2018-02-08T17:06:29.757Z,0.30
2018-02-08T17:08:57.898Z,0.40
2018-02-08T17:11:26.038Z,0.40
2018-02-08T17:13:54.182Z,0.40
2018-02-08T17:16:22.298Z,0.40
2018-02-08T17:18:50.485Z,0.30
2018-02-08T17:21:18.644Z,0.40
2018-02-08T17:23:46.780Z,0.30
2018-02-08T17:26:16.032Z,0.30
2018-02-08T17:28:44.152Z,0.30
2018-02-08T17:31:12.292Z,0.30
2018-02-08T17:33:40.452Z,0.30
2018-02-08T17:36:08.585Z,0.30
2018-02-08T17:38:36.752Z,0.30
2018-02-08T17:41:04.914Z,0.20
2018-02-08T17:43:33.838Z,0.30
2018-02-08T17:46:01.980Z,0.30
2018-02-08T17:48:30.135Z,0.30
2018-02-08T17:50:59.027Z,0.30
2018-02-08T17:53:27.940Z,0.30
2018-02-08T17:55:56.820Z,0.30
2018-02-08T17:58:24.957Z,0.30
2018-02-08T18:00:53.231Z,0.30
2018-02-08T18:03:22.117Z,0.20
2018-02-08T18:05:50.282Z,0.20
2018-02-08T18:08:18.397Z,0.10
2018-02-08T18:10:46.548Z,-0.10
2018-02-08T18:13:15.445Z,-0.20
2018-02-08T18:15:43.590Z,-0.20
2018-02-08T18:18:11.845Z,-0.30
2018-02-08T18:20:39.980Z,-0.40
2018-02-08T18:23:08.167Z,-0.40
2018-02-08T18:25:36.648Z,-0.50
2018-02-08T18:28:04.763Z,-0.50
2018-02-08T18:30:32.956Z,-0.50
2018-02-08T18:33:01.113Z,-0.60
2018-02-08T18:35:30.344Z,-0.60
2018-02-08T18:37:58.532Z,-0.60
2018-02-08T18:40:27.415Z,-0.60
2018-02-08T18:42:55.544Z,-0.60
2018-02-08T18:45:24.561Z,-0.50
2018-02-08T18:47:52.690Z,-0.50
2018-02-08T18:50:20.884Z,-0.60
2018-02-08T18:52:49.198Z,-0.60
2018-02-08T18:55:17.345Z,-0.60
2018-02-08T18:57:45.489Z,-0.70
2018-02-08T19:00:20.539Z,-0.70
2018-02-08T19:02:51.527Z,-0.80
2018-02-08T19:05:19.756Z,-0.90
2018-02-08T19:07:48.844Z,-0.70
2018-02-08T19:10:17.121Z,-0.70
2018-02-08T19:12:46.034Z,-0.70
2018-02-08T19:15:14.202Z,-0.70
2018-02-08T19:17:43.109Z,-0.80
2018-02-08T19:20:11.262Z,-0.80
2018-02-08T19:22:39.537Z,-0.80
2018-02-08T19:25:07.688Z,-0.90
2018-02-08T19:27:36.628Z,-0.90
2018-02-08T19:30:04.882Z,-0.90
2018-02-08T19:32:33.272Z,-1.00
2018-02-08T19:35:01.493Z,-1.00
2018-02-08T19:37:29.713Z,-1.10
2018-02-08T19:39:57.853Z,-1.20
2018-02-08T19:42:26.111Z,-1.20
2018-02-08T19:44:55.487Z,-1.20
2018-02-08T19:47:25.678Z,-1.30
2018-02-08T19:49:53.832Z,-1.30
2018-02-08T19:52:22.038Z,-1.30
2018-02-08T19:54:50.183Z,-1.40
2018-02-08T19:57:18.334Z,-1.50
2018-02-08T19:59:46.576Z,-1.60
2018-02-08T20:02:14.864Z,-1.50
2018-02-08T20:04:42.974Z,-1.50
2018-02-08T20:07:11.196Z,-1.40
2018-02-08T20:09:39.550Z,-1.50
2018-02-08T20:12:07.821Z,-1.60
2018-02-08T20:14:51.906Z,-1.70
2018-02-08T20:17:20.911Z,-1.70
2018-02-08T20:19:49.254Z,-1.70
2018-02-08T20:22:17.478Z,-1.70
2018-02-08T20:24:45.639Z,-1.70
2018-02-08T20:27:13.821Z,-1.60
2018-02-08T20:29:43.652Z,-1.50
2018-02-08T20:32:11.832Z,-1.50
2018-02-08T20:34:39.985Z,-1.50
2018-02-08T20:37:08.171Z,-1.30
2018-02-08T20:39:36.312Z,-1.30
2018-02-08T20:42:04.472Z,-1.40
2018-02-08T20:44:33.484Z,-1.30
2018-02-08T20:47:01.645Z,-1.30
2018-02-08T20:49:29.866Z,-1.30
2018-02-08T20:51:58.038Z,-1.30
2018-02-08T20:54:26.190Z,-1.30
2018-02-08T20:56:54.332Z,-1.20
2018-02-08T20:59:22.496Z,-1.30
2018-02-08T21:01:51.431Z,-1.50
2018-02-08T21:04:19.603Z,-1.50
2018-02-08T21:06:47.756Z,-1.40
2018-02-08T21:09:15.877Z,-1.40
2018-02-08T21:11:44.085Z,-1.40
2018-02-08T21:14:12.260Z,-1.40
2018-02-08T21:16:41.169Z,-1.40
2018-02-08T21:19:09.323Z,-1.40
2018-02-08T21:21:37.592Z,-1.40
2018-02-08T21:24:05.757Z,-1.40
2018-02-08T21:26:33.941Z,-1.50
2018-02-08T21:29:02.821Z,-1.50
2018-02-08T21:31:30.961Z,-1.50
2018-02-08T21:33:59.104Z,-1.50
2018-02-08T21:36:27.272Z,-1.50
2018-02-08T21:38:55.423Z,-1.40
2018-02-08T21:41:23.593Z,-1.50
2018-02-08T21:43:51.736Z,-1.50
2018-02-08T21:46:20.651Z,-1.50
2018-02-08T21:48:48.809Z,-1.50
2018-02-08T21:51:16.945Z,-1.40
2018-02-08T21:53:45.086Z,-1.40
2018-02-08T21:56:13.224Z,-1.40
2018-02-08T21:58:41.367Z,-1.50
2018-02-08T22:01:09.593Z,-1.50
2018-02-08T22:03:37.774Z,-1.40
2018-02-08T22:06:05.925Z,-1.40
2018-02-08T22:08:34.094Z,-1.40
2018-02-08T22:11:02.221Z,-1.40
2018-02-08T22:13:31.136Z,-1.00
2018-02-08T22:15:59.285Z,-1.10
2018-02-08T22:18:27.433Z,-1.20
2018-02-08T22:20:55.598Z,-1.30
2018-02-08T22:23:24.517Z,-1.30
2018-02-08T22:25:52.642Z,-1.30
2018-02-08T22:28:20.829Z,-1.40
2018-02-08T22:30:48.960Z,-1.40
2018-02-08T22:33:17.130Z,-1.40
2018-02-08T22:35:45.256Z,-1.50
2018-02-08T22:38:13.437Z,-1.40
2018-02-08T22:40:41.564Z,-1.40
2018-02-08T22:43:09.706Z,-1.40
2018-02-08T22:45:37.854Z,-1.40
2018-02-08T22:48:05.993Z,-1.40
2018-02-08T22:50:34.132Z,-1.50
2018-02-08T22:53:02.268Z,-1.40
2018-02-08T22:55:30.393Z,-1.30
2018-02-08T22:57:58.535Z,-1.30
2018-02-08T23:00:26.684Z,-1.40
2018-02-08T23:02:55.605Z,-1.40
2018-02-08T23:05:23.746Z,-1.40
2018-02-08T23:07:51.870Z,-1.30
2018-02-08T23:10:20.321Z,-1.40
2018-02-08T23:12:48.473Z,-1.40
2018-02-08T23:15:16.692Z,-1.40
2018-02-08T23:17:45.072Z,-1.30
2018-02-08T23:20:13.477Z,-1.20
2018-02-08T23:22:41.825Z,-1.30
2018-02-08T23:25:10.901Z,-1.40
2018-02-08T23:27:39.124Z,-1.40
2018-02-08T23:30:07.269Z,-1.30
2018-02-08T23:32:35.540Z,-1.30
2018-02-08T23:35:03.696Z,-1.30
2018-02-08T23:37:31.848Z,-1.40
2018-02-08T23:39:59.986Z,-1.50
2018-02-08T23:42:28.124Z,-1.60
2018-02-08T23:44:56.289Z,-1.60
2018-02-08T23:47:25.133Z,-1.70
2018-02-08T23:49:53.368Z,-1.90
2018-02-08T23:52:21.741Z,-1.90
2018-02-08T23:54:49.894Z,-1.80
2018-02-08T23:57:18.106Z,-1.70
2018-02-08T23:59:46.290Z,-1.60
